Time;durP1;ratioP1;P1;durP2;ratioP2;P2;SDS_P1;SDS_P2;PMS_P1;PMS_P2;Temp;Humidity;BMP_temperature;BMP_pressure;BME280_temperature;BME280_humidity;BME280_pressure;Samples;Min_cycle;Max_cycle;Signal;HPM_P1;HPM_P2
2024/03/05 00:02:59;;;;;;;11.57;7.82;;;;;;;;;;6312006;28;24430;-81
2024/03/05 00:06:10;;;;;;;22.50;13.17;;;;;;;;;;6318351;28;24614;-82
2024/03/05 00:09:15;;;;;;;30.20;14.75;;;;;;;;;;6312075;28;24429;-82
2024/03/05 00:12:18;;;;;;;48.87;25.23;;;;;;;;;;6319449;28;24461;-82
2024/03/05 00:15:23;;;;;;;22.63;12.32;;;;;;;;;;6314863;28;24429;-83
2024/03/05 00:18:35;;;;;;;12.52;8.10;;;;;;;;;;6319833;28;24424;-82
2024/03/05 00:25:20;;;;;;;12.02;7.32;;;;;;;;;;6313316;28;24559;-81
2024/03/05 00:28:40;;;;;;;11.13;7.60;;;;;;;;;;6314449;28;24442;-82
2024/03/05 00:32:07;;;;;;;;;;;;;;;;;;;;;
2024/03/05 00:35:15;;;;;;;10.65;7.32;;;;;;;;;;6303206;28;24496;-83
2024/03/05 00:38:23;;;;;;;11.45;6.95;;;;;;;;;;6295112;28;24458;-81
2024/03/05 00:41:34;;;;;;;12.00;7.50;;;;;;;;;;6314181;28;24460;-81
2024/03/05 00:44:50;;;;;;;15.20;7.63;;;;;;;;;;6322941;28;24511;-81
2024/03/05 00:47:52;;;;;;;10.05;6.95;;;;;;;;;;6326330;28;24415;-83
2024/03/05 00:54:12;;;;;;;11.02;6.93;;;;;;;;;;6317453;28;24415;-81
2024/03/05 00:57:16;;;;;;;10.88;7.10;;;;;;;;;;6315545;28;24841;-82
2024/03/05 01:00:24;;;;;;;9.27;6.30;;;;;;;;;;6293911;28;24897;-83
2024/03/05 01:03:26;;;;;;;8.88;5.85;;;;;;;;;;6316199;28;24427;-81
2024/03/05 01:06:29;;;;;;;10.73;5.72;;;;;;;;;;6317059;28;24532;-81
2024/03/05 01:09:36;;;;;;;9.45;6.25;;;;;;;;;;6301783;28;24607;-82
2024/03/05 01:12:48;;;;;;;8.55;5.88;;;;;;;;;;6320010;28;24611;-81
2024/03/05 01:20:10;;;;;;;10.02;6.38;;;;;;;;;;6271414;28;24836;-81
2024/03/05 01:23:24;;;;;;;9.50;5.90;;;;;;;;;;6313833;28;24422;-81
2024/03/05 01:26:58;;;;;;;8.63;6.00;;;;;;;;;;6299212;28;24647;-82
2024/03/05 01:30:11;;;;;;;7.30;5.40;;;;;;;;;;6286632;28;24415;-81
2024/03/05 01:33:39;;;;;;;7.30;5.05;;;;;;;;;;6321913;28;24414;-81
2024/03/05 01:37:17;;;;;;;9.15;5.25;;;;;;;;;;6291827;28;24446;-81
2024/03/05 01:40:45;;;;;;;7.47;5.00;;;;;;;;;;6251738;28;24499;-83
2024/03/05 01:47:16;;;;;;;7.47;5.00;;;;;;;;;;6277317;28;24407;-81
2024/03/05 01:50:47;;;;;;;6.25;4.90;;;;;;;;;;6303018;28;24482;-83
2024/03/05 01:54:22;;;;;;;7.63;5.68;;;;;;;;;;6291410;28;24550;-82
2024/03/05 01:57:38;;;;;;;8.68;5.90;;;;;;;;;;6314424;28;24873;-82
2024/03/05 02:00:40;;;;;;;9.80;6.10;;;;;;;;;;6297252;28;24422;-83
2024/03/05 02:03:58;;;;;;;10.38;6.55;;;;;;;;;;6319765;28;24427;-81
2024/03/05 02:07:03;;;;;;;10.07;6.45;;;;;;;;;;6304286;28;24468;-82
2024/03/05 02:10:48;;;;;;;8.95;6.53;;;;;;;;;;6269415;28;24481;-81
2024/03/05 02:14:26;;;;;;;10.15;7.05;;;;;;;;;;6316842;28;24504;-81
2024/03/05 02:17:31;;;;;;;9.60;7.00;;;;;;;;;;6316259;28;24438;-81
2024/03/05 02:28:11;;;;;;;9.50;6.97;;;;;;;;;;6227531;28;24759;-81
2024/03/05 02:31:17;;;;;;;8.88;6.68;;;;;;;;;;6218864;28;24428;-81
2024/03/05 02:34:25;;;;;;;8.57;6.65;;;;;;;;;;6245450;28;24430;-81
2024/03/05 02:44:57;;;;;;;11.60;7.00;;;;;;;;;;6241283;28;24604;-81
2024/03/05 02:48:14;;;;;;;9.45;6.50;;;;;;;;;;6226983;28;24671;-81
2024/03/05 02:51:35;;;;;;;10.73;7.22;;;;;;;;;;6243880;28;24412;-82
2024/03/05 02:54:45;;;;;;;8.93;6.70;;;;;;;;;;6232906;28;24485;-81
2024/03/05 02:57:55;;;;;;;9.93;6.80;;;;;;;;;;6214865;28;24431;-81
2024/03/05 03:01:20;;;;;;;9.02;6.75;;;;;;;;;;6236733;28;24722;-81
2024/03/05 03:04:45;;;;;;;8.80;6.68;;;;;;;;;;6283201;28;24430;-81
2024/03/05 03:11:40;;;;;;;8.82;6.72;;;;;;;;;;6321907;28;24444;-81
2024/03/05 03:14:51;;;;;;;10.82;6.93;;;;;;;;;;6327825;28;24477;-81
2024/03/05 03:18:06;;;;;;;10.73;6.93;;;;;;;;;;6300635;28;24431;-81
2024/03/05 03:21:41;;;;;;;10.68;6.90;;;;;;;;;;6318480;28;24454;-80
2024/03/05 03:25:01;;;;;;;8.63;6.32;;;;;;;;;;6313424;28;24433;-81
2024/03/05 03:28:07;;;;;;;12.93;6.70;;;;;;;;;;6322909;28;24536;-82
2024/03/05 03:31:15;;;;;;;9.48;7.15;;;;;;;;;;6296857;28;24438;-82
2024/03/05 03:34:21;;;;;;;10.00;6.65;;;;;;;;;;6301944;28;24534;-82
2024/03/05 03:37:25;;;;;;;9.10;6.88;;;;;;;;;;6326175;28;24480;-80
2024/03/05 03:40:36;;;;;;;9.50;6.90;;;;;;;;;;6320162;28;24769;-81
2024/03/05 03:43:59;;;;;;;10.20;6.80;;;;;;;;;;6321438;28;24619;-81
2024/03/05 03:51:31;;;;;;;11.13;7.45;;;;;;;;;;6250527;28;24412;-81
2024/03/05 03:54:48;;;;;;;9.88;7.20;;;;;;;;;;6252772;28;24419;-81
2024/03/05 03:57:57;;;;;;;12.25;7.97;;;;;;;;;;6235434;28;24432;-80
2024/03/05 04:05:17;;;;;;;12.27;7.15;;;;;;;;;;6208242;28;24546;-81
2024/03/05 04:08:23;;;;;;;10.23;7.70;;;;;;;;;;6252935;28;24515;-80
2024/03/05 04:11:29;;;;;;;11.60;7.13;;;;;;;;;;6255890;28;24658;-81
2024/03/05 04:14:43;;;;;;;15.73;8.00;;;;;;;;;;6243321;28;24439;-80
2024/03/05 04:17:45;;;;;;;11.05;7.40;;;;;;;;;;6239004;28;24423;-81
2024/03/05 04:20:46;;;;;;;10.13;7.65;;;;;;;;;;6248912;28;24858;-81
2024/03/05 04:23:48;;;;;;;12.82;7.95;;;;;;;;;;6242839;28;24624;-81
2024/03/05 04:27:02;;;;;;;11.00;7.65;;;;;;;;;;6265747;28;25014;-81
2024/03/05 04:30:26;;;;;;;9.98;7.50;;;;;;;;;;6322749;28;24514;-81
2024/03/05 04:33:36;;;;;;;11.37;7.80;;;;;;;;;;6328477;28;24784;-82
2024/03/05 04:36:52;;;;;;;12.43;7.70;;;;;;;;;;6323303;28;24502;-81
2024/03/05 04:40:09;;;;;;;11.43;7.55;;;;;;;;;;6332072;27;24426;-81
2024/03/05 04:43:13;;;;;;;11.15;7.78;;;;;;;;;;6304939;27;24429;-83
2024/03/05 04:46:18;;;;;;;10.43;7.65;;;;;;;;;;6325807;28;24647;-81
2024/03/05 04:49:20;;;;;;;11.23;7.63;;;;;;;;;;6322172;28;24765;-83
2024/03/05 04:52:21;;;;;;;11.23;7.85;;;;;;;;;;6326777;28;24426;-80
2024/03/05 04:55:27;;;;;;;12.68;8.23;;;;;;;;;;6325647;28;24421;-81
2024/03/05 04:58:33;;;;;;;12.27;7.93;;;;;;;;;;6325119;28;24414;-81
2024/03/05 05:01:44;;;;;;;13.47;8.33;;;;;;;;;;6326368;28;24419;-81
2024/03/05 05:04:54;;;;;;;10.18;7.85;;;;;;;;;;6316212;28;24436;-81
2024/03/05 05:07:59;;;;;;;13.02;8.23;;;;;;;;;;6326364;28;24425;-81
2024/03/05 05:11:04;;;;;;;10.82;7.57;;;;;;;;;;6325044;28;24437;-81
2024/03/05 05:14:26;;;;;;;12.48;8.05;;;;;;;;;;6321016;28;24424;-83
2024/03/05 05:17:30;;;;;;;13.90;8.15;;;;;;;;;;6324571;28;24429;-82
2024/03/05 05:20:32;;;;;;;13.80;8.32;;;;;;;;;;6319535;28;24445;-81
2024/03/05 05:23:34;;;;;;;13.32;9.15;;;;;;;;;;6323223;28;24426;-81
2024/03/05 05:26:36;;;;;;;13.38;8.88;;;;;;;;;;6323017;28;24441;-81
2024/03/05 05:29:42;;;;;;;15.52;9.20;;;;;;;;;;6322190;28;24472;-81
2024/03/05 05:32:44;;;;;;;13.98;8.88;;;;;;;;;;6319180;28;24493;-82
2024/03/05 05:35:46;;;;;;;12.10;8.52;;;;;;;;;;6320146;28;24555;-81
2024/03/05 05:38:56;;;;;;;12.20;8.38;;;;;;;;;;6318431;28;24810;-81
2024/03/05 05:42:00;;;;;;;12.85;8.27;;;;;;;;;;6326599;28;24414;-81
2024/03/05 05:45:13;;;;;;;15.15;8.35;;;;;;;;;;6322612;28;24430;-83
2024/03/05 05:48:25;;;;;;;12.90;7.93;;;;;;;;;;6324116;28;24664;-80
2024/03/05 05:51:38;;;;;;;11.20;7.90;;;;;;;;;;6329166;28;25030;-83
2024/03/05 05:54:43;;;;;;;12.67;8.63;;;;;;;;;;6326359;28;24417;-82
2024/03/05 05:57:51;;;;;;;13.50;9.02;;;;;;;;;;6325625;28;24868;-80
2024/03/05 06:00:55;;;;;;;13.93;8.40;;;;;;;;;;6318910;28;24418;-82
2024/03/05 06:03:58;;;;;;;11.70;8.40;;;;;;;;;;6323588;28;24433;-80
2024/03/05 06:07:07;;;;;;;12.60;8.35;;;;;;;;;;6323632;28;24509;-80
2024/03/05 06:10:10;;;;;;;13.60;9.00;;;;;;;;;;6307192;28;24480;-83
2024/03/05 06:13:18;;;;;;;13.15;8.43;;;;;;;;;;6324061;28;24883;-83
2024/03/05 06:16:22;;;;;;;13.98;8.82;;;;;;;;;;6320232;28;24476;-80
2024/03/05 06:19:24;;;;;;;14.77;9.00;;;;;;;;;;6322372;28;24425;-81
2024/03/05 06:22:28;;;;;;;45.78;10.80;;;;;;;;;;6325052;28;24437;-82
2024/03/05 06:25:33;;;;;;;12.55;8.52;;;;;;;;;;6325231;28;24602;-82
2024/03/05 06:28:37;;;;;;;10.57;8.32;;;;;;;;;;6322285;28;24422;-82
2024/03/05 06:31:41;;;;;;;12.38;8.43;;;;;;;;;;6321687;28;24461;-81
2024/03/05 06:34:50;;;;;;;11.57;8.02;;;;;;;;;;6309840;28;24518;-83
2024/03/05 06:38:02;;;;;;;11.50;8.37;;;;;;;;;;6316608;28;24423;-81
2024/03/05 06:41:04;;;;;;;11.93;8.40;;;;;;;;;;6321895;28;24425;-83
2024/03/05 06:44:11;;;;;;;11.95;8.07;;;;;;;;;;6326960;28;24887;-82
2024/03/05 06:47:16;;;;;;;12.30;8.45;;;;;;;;;;6319587;28;24430;-82
2024/03/05 06:50:22;;;;;;;11.57;7.32;;;;;;;;;;6323555;28;24435;-82
2024/03/05 06:56:57;;;;;;;8.93;6.28;;;;;;;;;;6319897;28;24407;-82
2024/03/05 07:00:15;;;;;;;10.37;6.33;;;;;;;;;;6318747;28;24634;-81
2024/03/05 07:03:22;;;;;;;9.93;6.15;;;;;;;;;;6315631;28;24450;-82
2024/03/05 07:06:24;;;;;;;11.43;6.32;;;;;;;;;;6314999;28;24442;-82
2024/03/05 07:09:31;;;;;;;10.98;6.32;;;;;;;;;;6318125;28;24428;-81
2024/03/05 07:12:34;;;;;;;10.38;6.40;;;;;;;;;;6323232;28;24415;-83
2024/03/05 07:15:36;;;;;;;11.43;6.68;;;;;;;;;;6320806;28;24457;-82
2024/03/05 07:18:40;;;;;;;10.98;6.50;;;;;;;;;;6320039;28;24463;-82
2024/03/05 07:21:41;;;;;;;9.75;5.85;;;;;;;;;;6323798;28;24473;-82
2024/03/05 07:24:43;;;;;;;8.82;5.70;;;;;;;;;;6318938;28;24468;-82
2024/03/05 07:27:46;;;;;;;11.40;6.05;;;;;;;;;;6328600;28;24433;-82
2024/03/05 07:30:48;;;;;;;11.00;6.55;;;;;;;;;;6326950;28;24498;-82
2024/03/05 07:33:54;;;;;;;9.75;5.88;;;;;;;;;;6330388;28;24794;-81
2024/03/05 07:37:00;;;;;;;9.07;5.75;;;;;;;;;;6325068;28;24466;-82
2024/03/05 07:40:09;;;;;;;7.80;5.75;;;;;;;;;;6326402;28;24816;-82
2024/03/05 07:43:16;;;;;;;9.73;5.57;;;;;;;;;;6287962;28;24496;-80
2024/03/05 07:50:14;;;;;;;8.23;5.00;;;;;;;;;;6226877;28;24527;-83
2024/03/05 07:53:27;;;;;;;9.03;5.30;;;;;;;;;;6231414;28;24475;-82
2024/03/05 07:56:41;;;;;;;9.55;5.70;;;;;;;;;;6229264;28;24418;-81
2024/03/05 07:59:53;;;;;;;9.90;5.63;;;;;;;;;;6209714;28;24668;-82
2024/03/05 08:03:04;;;;;;;12.30;5.75;;;;;;;;;;6225751;28;24424;-83
2024/03/05 08:06:07;;;;;;;11.02;6.45;;;;;;;;;;6229578;28;24448;-81
2024/03/05 08:09:13;;;;;;;11.50;6.23;;;;;;;;;;6228654;28;24577;-82
2024/03/05 08:12:15;;;;;;;9.07;5.93;;;;;;;;;;6230784;28;25575;-82
2024/03/05 08:15:18;;;;;;;13.32;6.00;;;;;;;;;;6233203;28;24527;-81
2024/03/05 08:18:19;;;;;;;9.23;6.03;;;;;;;;;;6229532;28;24416;-82
2024/03/05 08:21:23;;;;;;;9.30;5.88;;;;;;;;;;6229964;28;24475;-83
2024/03/05 08:24:24;;;;;;;12.75;6.30;;;;;;;;;;6236846;28;24431;-83
2024/03/05 08:27:26;;;;;;;10.33;6.43;;;;;;;;;;6325268;28;24445;-83
2024/03/05 08:30:31;;;;;;;12.27;6.93;;;;;;;;;;6318700;28;24418;-81
2024/03/05 08:33:36;;;;;;;11.38;6.80;;;;;;;;;;6323429;28;24426;-82
2024/03/05 08:36:39;;;;;;;12.10;7.03;;;;;;;;;;6317000;28;24499;-81
2024/03/05 08:39:41;;;;;;;10.73;6.90;;;;;;;;;;6320334;28;24493;-83
2024/03/05 08:42:44;;;;;;;48.63;28.20;;;;;;;;;;6319679;28;24593;-81
2024/03/05 08:45:46;;;;;;;20.73;10.38;;;;;;;;;;6321568;28;24431;-81
2024/03/05 08:48:48;;;;;;;13.47;6.83;;;;;;;;;;6318608;28;24406;-82
2024/03/05 08:51:51;;;;;;;8.40;5.68;;;;;;;;;;6324865;28;24839;-82
2024/03/05 08:54:54;;;;;;;9.93;5.88;;;;;;;;;;6323444;28;24421;-83
2024/03/05 08:57:56;;;;;;;9.55;5.85;;;;;;;;;;6321095;28;24432;-84
2024/03/05 09:00:58;;;;;;;12.48;5.68;;;;;;;;;;6329048;28;24422;-84
2024/03/05 09:04:00;;;;;;;7.07;4.40;;;;;;;;;;6324622;28;24480;-82
2024/03/05 09:07:07;;;;;;;8.37;4.93;;;;;;;;;;6322075;28;24426;-82
2024/03/05 09:10:11;;;;;;;12.03;5.10;;;;;;;;;;6326970;28;24894;-82
2024/03/05 09:13:12;;;;;;;12.50;5.68;;;;;;;;;;6326622;28;24630;-83
2024/03/05 09:16:23;;;;;;;7.63;4.97;;;;;;;;;;6327587;28;24452;-81
2024/03/05 09:19:24;;;;;;;8.68;4.82;;;;;;;;;;6319319;28;24501;-82
2024/03/05 09:22:29;;;;;;;8.70;5.95;;;;;;;;;;6325418;28;24413;-81
2024/03/05 09:25:32;;;;;;;10.80;6.07;;;;;;;;;;6321056;28;24422;-82
2024/03/05 09:28:35;;;;;;;9.63;5.60;;;;;;;;;;6255040;28;1928607;-83
2024/03/05 09:31:36;;;;;;;8.20;5.90;;;;;;;;;;6323647;28;24425;-82
2024/03/05 09:34:38;;;;;;;11.32;6.18;;;;;;;;;;6321433;28;24446;-82
2024/03/05 09:37:42;;;;;;;8.07;5.90;;;;;;;;;;6325727;28;24409;-82
2024/03/05 09:40:48;;;;;;;8.97;5.67;;;;;;;;;;6325238;28;24646;-84
2024/03/05 09:43:50;;;;;;;9.35;5.55;;;;;;;;;;6323905;28;24434;-82
2024/03/05 09:46:52;;;;;;;9.40;5.30;;;;;;;;;;6323926;28;24428;-82
2024/03/05 09:49:56;;;;;;;10.23;5.22;;;;;;;;;;6321155;28;24418;-83
2024/03/05 09:53:00;;;;;;;10.52;4.95;;;;;;;;;;6323326;28;24417;-81
2024/03/05 09:56:04;;;;;;;7.65;5.15;;;;;;;;;;6319127;28;24434;-82
2024/03/05 09:59:08;;;;;;;10.23;5.40;;;;;;;;;;6317738;28;24509;-81
2024/03/05 10:02:13;;;;;;;6.80;4.15;;;;;;;;;;6323106;28;24425;-80
2024/03/05 10:05:16;;;;;;;7.88;3.78;;;;;;;;;;6322204;28;24797;-81
2024/03/05 10:08:29;;;;;;;7.75;3.80;;;;;;;;;;6315354;28;24580;-82
2024/03/05 10:11:31;;;;;;;7.30;4.00;;;;;;;;;;6316635;28;25292;-82
2024/03/05 10:14:34;;;;;;;8.40;4.10;;;;;;;;;;6318599;28;24444;-84
2024/03/05 10:17:42;;;;;;;6.63;4.00;;;;;;;;;;6317212;28;24418;-82
2024/03/05 10:20:44;;;;;;;6.07;3.50;;;;;;;;;;6324975;28;24441;-83
2024/03/05 10:23:49;;;;;;;4.83;3.20;;;;;;;;;;6320947;28;24555;-84
2024/03/05 10:26:54;;;;;;;5.40;3.00;;;;;;;;;;6326338;28;24421;-82
2024/03/05 10:29:55;;;;;;;5.63;2.90;;;;;;;;;;6321318;28;24416;-82
2024/03/05 10:33:09;;;;;;;5.13;3.42;;;;;;;;;;6320719;28;24428;-83
2024/03/05 10:36:16;;;;;;;8.55;3.40;;;;;;;;;;6319373;28;24472;-83
2024/03/05 10:39:19;;;;;;;6.43;2.90;;;;;;;;;;6323277;28;24427;-82
2024/03/05 10:42:21;;;;;;;6.07;3.00;;;;;;;;;;6324391;28;24498;-82
2024/03/05 10:45:28;;;;;;;5.75;2.90;;;;;;;;;;6323884;28;24613;-82
2024/03/05 10:48:30;;;;;;;4.95;3.00;;;;;;;;;;6318655;28;24848;-82
2024/03/05 10:51:40;;;;;;;8.23;3.40;;;;;;;;;;6322993;28;24676;-82
2024/03/05 10:54:48;;;;;;;5.80;2.90;;;;;;;;;;6320903;28;24511;-84
2024/03/05 11:01:26;;;;;;;6.10;3.10;;;;;;;;;;6321962;28;24399;-82
2024/03/05 11:04:29;;;;;;;7.13;2.95;;;;;;;;;;6320077;28;24441;-84
2024/03/05 11:07:37;;;;;;;5.43;2.95;;;;;;;;;;6324480;28;24514;-82
2024/03/05 11:10:46;;;;;;;5.57;3.03;;;;;;;;;;6326942;28;24414;-82
2024/03/05 11:13:58;;;;;;;7.72;3.30;;;;;;;;;;6318776;28;24419;-83
2024/03/05 11:17:09;;;;;;;5.73;3.20;;;;;;;;;;6321169;28;24434;-82
2024/03/05 11:20:42;;;;;;;7.63;3.33;;;;;;;;;;6323188;28;24423;-81
2024/03/05 11:24:00;;;;;;;6.35;3.33;;;;;;;;;;6320486;28;24418;-81
2024/03/05 11:27:11;;;;;;;7.03;3.45;;;;;;;;;;6321671;28;24654;-82
2024/03/05 11:30:18;;;;;;;7.93;3.53;;;;;;;;;;6320316;28;24618;-84
2024/03/05 11:33:20;;;;;;;39.25;21.25;;;;;;;;;;6320882;28;24484;-82
2024/03/05 11:36:23;;;;;;;10.03;5.43;;;;;;;;;;6320109;28;24430;-82
2024/03/05 11:39:27;;;;;;;44.77;23.33;;;;;;;;;;6317285;28;24419;-85
2024/03/05 11:42:34;;;;;;;37.40;19.85;;;;;;;;;;6315634;28;24448;-83
2024/03/05 11:45:46;;;;;;;27.90;11.77;;;;;;;;;;6316438;28;24824;-82
2024/03/05 11:48:59;;;;;;;48.10;26.70;;;;;;;;;;6320505;28;24464;-82
2024/03/05 11:52:01;;;;;;;30.35;15.90;;;;;;;;;;6320202;28;24426;-83
2024/03/05 11:55:05;;;;;;;17.73;10.18;;;;;;;;;;6320773;28;24809;-82
2024/03/05 11:58:10;;;;;;;8.68;4.25;;;;;;;;;;6330120;28;24411;-82
2024/03/05 12:01:16;;;;;;;10.13;4.60;;;;;;;;;;6316978;28;24892;-82
2024/03/05 12:04:18;;;;;;;7.93;4.85;;;;;;;;;;6323742;28;24445;-83
2024/03/05 12:07:23;;;;;;;7.07;4.10;;;;;;;;;;6319937;28;24442;-83
2024/03/05 12:10:27;;;;;;;7.15;4.60;;;;;;;;;;6299270;28;24843;-82
2024/03/05 12:13:31;;;;;;;8.27;4.80;;;;;;;;;;6321428;28;24608;-83
2024/03/05 12:16:36;;;;;;;8.80;5.17;;;;;;;;;;6323976;28;24446;-81
2024/03/05 12:19:38;;;;;;;7.60;4.60;;;;;;;;;;6327776;28;24697;-82
2024/03/05 12:22:41;;;;;;;8.15;4.88;;;;;;;;;;6328892;28;24480;-83
2024/03/05 12:25:43;;;;;;;9.05;5.20;;;;;;;;;;6324507;28;24418;-82
2024/03/05 12:28:46;;;;;;;7.30;4.63;;;;;;;;;;6324632;28;24406;-83
2024/03/05 12:31:53;;;;;;;9.15;4.75;;;;;;;;;;6327661;28;24415;-83
2024/03/05 12:34:56;;;;;;;8.43;4.67;;;;;;;;;;6326739;28;24410;-82
2024/03/05 12:38:03;;;;;;;7.25;4.53;;;;;;;;;;6323791;27;24522;-83
2024/03/05 12:41:05;;;;;;;6.78;4.43;;;;;;;;;;6319956;28;24403;-85
2024/03/05 12:44:08;;;;;;;7.63;4.30;;;;;;;;;;6324626;28;24446;-83
2024/03/05 12:47:11;;;;;;;6.60;4.30;;;;;;;;;;6323296;28;24425;-83
2024/03/05 12:50:13;;;;;;;11.85;5.40;;;;;;;;;;6324279;28;24466;-83
2024/03/05 12:53:15;;;;;;;12.00;6.05;;;;;;;;;;6324814;28;24618;-82
2024/03/05 12:56:17;;;;;;;8.02;4.88;;;;;;;;;;6323166;28;24416;-82
2024/03/05 12:59:21;;;;;;;10.75;5.30;;;;;;;;;;6324695;28;24588;-81
2024/03/05 13:02:26;;;;;;;87.38;52.42;;;;;;;;;;6324022;28;24427;-82
2024/03/05 13:05:28;;;;;;;35.95;23.98;;;;;;;;;;6322256;28;24594;-81
2024/03/05 13:08:29;;;;;;;9.25;4.80;;;;;;;;;;6317677;28;24501;-83
2024/03/05 13:11:31;;;;;;;7.80;4.07;;;;;;;;;;6316277;28;24425;-82
2024/03/05 13:14:40;;;;;;;6.38;3.92;;;;;;;;;;6322127;28;24809;-83
2024/03/05 13:17:42;;;;;;;6.10;3.90;;;;;;;;;;6320508;28;24586;-85
2024/03/05 13:20:44;;;;;;;6.20;3.28;;;;;;;;;;6318361;28;24488;-83
2024/03/05 13:23:49;;;;;;;6.75;3.70;;;;;;;;;;6319767;27;24503;-82
2024/03/05 13:26:57;;;;;;;6.25;3.78;;;;;;;;;;6324966;28;24840;-83
2024/03/05 13:30:04;;;;;;;7.03;3.97;;;;;;;;;;6322407;28;24422;-83
2024/03/05 13:33:07;;;;;;;8.70;4.15;;;;;;;;;;6325677;28;24805;-82
2024/03/05 13:36:12;;;;;;;6.28;3.33;;;;;;;;;;6319420;28;24429;-82
2024/03/05 13:39:18;;;;;;;7.30;3.50;;;;;;;;;;6321913;28;24418;-82
2024/03/05 13:42:21;;;;;;;9.45;3.63;;;;;;;;;;6322032;28;24426;-82
2024/03/05 13:45:27;;;;;;;8.68;3.50;;;;;;;;;;6311583;28;24521;-83
2024/03/05 13:48:30;;;;;;;6.32;3.30;;;;;;;;;;6325824;28;24429;-82
2024/03/05 13:51:32;;;;;;;7.97;3.40;;;;;;;;;;6325363;28;24832;-82
2024/03/05 13:54:35;;;;;;;6.32;3.90;;;;;;;;;;6322261;28;24861;-82
2024/03/05 13:57:43;;;;;;;9.48;4.30;;;;;;;;;;6325472;28;24442;-83
2024/03/05 14:00:46;;;;;;;8.80;3.77;;;;;;;;;;6329109;28;24495;-82
2024/03/05 14:03:48;;;;;;;10.35;3.50;;;;;;;;;;6320730;28;24618;-83
2024/03/05 14:06:50;;;;;;;5.72;3.30;;;;;;;;;;6320149;28;24415;-82
2024/03/05 14:09:52;;;;;;;6.80;3.10;;;;;;;;;;6321363;28;24702;-82
2024/03/05 14:12:54;;;;;;;6.20;2.90;;;;;;;;;;6323402;28;24477;-83
2024/03/05 14:16:00;;;;;;;6.43;2.80;;;;;;;;;;6324471;28;25152;-83
2024/03/05 14:19:03;;;;;;;6.88;2.95;;;;;;;;;;6326211;28;24421;-83
2024/03/05 14:22:05;;;;;;;5.57;2.50;;;;;;;;;;6324977;28;24489;-83
2024/03/05 14:25:11;;;;;;;5.77;2.30;;;;;;;;;;6324467;28;24489;-84
2024/03/05 14:28:16;;;;;;;6.00;2.33;;;;;;;;;;6324508;28;24471;-84
2024/03/05 14:31:19;;;;;;;6.50;2.30;;;;;;;;;;6323517;28;24497;-83
2024/03/05 14:34:26;;;;;;;5.35;2.25;;;;;;;;;;6323705;28;24514;-85
2024/03/05 14:37:28;;;;;;;6.43;2.17;;;;;;;;;;6321850;28;24411;-82
2024/03/05 14:40:33;;;;;;;58.88;31.38;;;;;;;;;;6318566;28;24429;-83
2024/03/05 14:43:35;;;;;;;81.50;42.97;;;;;;;;;;6317521;28;24421;-82
2024/03/05 14:46:47;;;;;;;42.00;21.50;;;;;;;;;;6324059;28;24468;-82
2024/03/05 14:50:03;;;;;;;34.53;18.00;;;;;;;;;;6316127;28;24611;-82
2024/03/05 15:00:21;;;;;;;69.45;34.95;;;;;;;;;;6274883;27;24474;-83
2024/03/05 15:03:29;;;;;;;8.05;3.67;;;;;;;;;;6261437;28;24426;-83
2024/03/05 15:11:00;;;;;;;4.18;1.60;;;;;;;;;;6243144;28;24428;-82
2024/03/05 15:14:08;;;;;;;5.85;1.83;;;;;;;;;;6285823;28;24818;-84
2024/03/05 15:17:12;;;;;;;4.43;1.60;;;;;;;;;;6287414;28;24659;-83
2024/03/05 15:20:21;;;;;;;4.63;1.67;;;;;;;;;;6283385;28;24442;-83
2024/03/05 15:23:32;;;;;;;5.20;1.60;;;;;;;;;;6287088;28;24517;-83
2024/03/05 15:26:50;;;;;;;4.55;1.58;;;;;;;;;;6286286;28;24499;-83
2024/03/05 15:29:55;;;;;;;4.15;1.60;;;;;;;;;;6281703;28;24424;-84
2024/03/05 15:33:16;;;;;;;6.93;2.58;;;;;;;;;;6282163;28;24473;-84
2024/03/05 15:36:18;;;;;;;5.93;2.60;;;;;;;;;;6287077;28;24510;-83
2024/03/05 15:39:22;;;;;;;5.18;2.03;;;;;;;;;;6290967;28;24427;-85
2024/03/05 15:42:33;;;;;;;7.13;2.38;;;;;;;;;;6288532;28;24423;-83
2024/03/05 15:45:38;;;;;;;5.57;2.20;;;;;;;;;;6284564;28;24416;-83
2024/03/05 15:48:49;;;;;;;6.25;2.20;;;;;;;;;;6285608;28;24420;-83
2024/03/05 15:51:51;;;;;;;5.63;1.90;;;;;;;;;;6286936;28;24506;-83
2024/03/05 15:54:58;;;;;;;5.00;2.00;;;;;;;;;;6289235;28;24428;-83
2024/03/05 15:58:18;;;;;;;4.70;1.77;;;;;;;;;;6283909;28;24478;-82
2024/03/05 16:01:30;;;;;;;5.18;2.05;;;;;;;;;;6238508;28;24507;-83
2024/03/05 16:04:41;;;;;;;4.95;2.60;;;;;;;;;;6251046;28;24419;-83
2024/03/05 16:08:00;;;;;;;5.72;2.40;;;;;;;;;;6256282;28;24661;-83
2024/03/05 16:11:15;;;;;;;5.40;2.30;;;;;;;;;;6245488;28;24496;-84
2024/03/05 16:18:31;;;;;;;4.65;1.88;;;;;;;;;;6209953;28;24440;-83
2024/03/05 16:22:05;;;;;;;4.22;1.80;;;;;;;;;;6244853;28;24408;-83
2024/03/05 16:25:39;;;;;;;7.53;2.10;;;;;;;;;;6215104;28;24835;-84
2024/03/05 16:28:45;;;;;;;4.97;2.20;;;;;;;;;;6237170;28;24435;-82
2024/03/05 16:31:46;;;;;;;4.45;1.65;;;;;;;;;;6258741;28;24435;-81
2024/03/05 16:34:54;;;;;;;4.05;1.80;;;;;;;;;;6239523;28;24428;-84
2024/03/05 16:37:57;;;;;;;5.50;1.90;;;;;;;;;;6242313;28;24512;-83
2024/03/05 16:40:59;;;;;;;3.73;1.70;;;;;;;;;;6242761;28;24438;-81
2024/03/05 16:44:02;;;;;;;4.63;2.00;;;;;;;;;;6242390;28;24435;-80
2024/03/05 16:47:04;;;;;;;3.20;1.73;;;;;;;;;;6244556;28;24471;-82
2024/03/05 16:50:07;;;;;;;5.05;2.10;;;;;;;;;;6244067;28;24431;-82
2024/03/05 16:53:11;;;;;;;5.37;2.60;;;;;;;;;;6244860;28;24430;-82
2024/03/05 16:56:13;;;;;;;4.82;3.03;;;;;;;;;;6242234;28;24850;-81
2024/03/05 16:59:15;;;;;;;6.97;4.35;;;;;;;;;;6243929;28;24417;-82
2024/03/05 17:02:16;;;;;;;7.35;3.83;;;;;;;;;;6242645;28;24495;-82
2024/03/05 17:05:18;;;;;;;7.38;4.30;;;;;;;;;;6242459;28;24420;-82
2024/03/05 17:08:23;;;;;;;11.13;4.70;;;;;;;;;;6241653;28;24420;-82
2024/03/05 17:11:25;;;;;;;9.40;5.13;;;;;;;;;;6241697;28;25192;-81
2024/03/05 17:14:28;;;;;;;6.38;4.82;;;;;;;;;;6238631;28;24870;-82
2024/03/05 17:17:32;;;;;;;9.83;5.87;;;;;;;;;;6242665;28;24502;-81
2024/03/05 17:20:34;;;;;;;11.00;6.10;;;;;;;;;;6240743;28;24425;-82
2024/03/05 17:23:42;;;;;;;7.77;5.50;;;;;;;;;;6239934;28;24421;-82
2024/03/05 17:26:45;;;;;;;10.80;6.30;;;;;;;;;;6244000;28;24416;-81
2024/03/05 17:29:47;;;;;;;9.43;6.00;;;;;;;;;;6239374;28;24436;-82
2024/03/05 17:32:49;;;;;;;8.25;5.70;;;;;;;;;;6240565;28;24541;-82
2024/03/05 17:35:54;;;;;;;10.48;5.97;;;;;;;;;;6240278;28;24439;-81
2024/03/05 17:39:07;;;;;;;10.38;5.53;;;;;;;;;;6241494;28;24431;-81
2024/03/05 17:42:10;;;;;;;7.38;4.10;;;;;;;;;;6241828;28;24723;-79
2024/03/05 17:45:13;;;;;;;7.03;4.35;;;;;;;;;;6241055;28;24432;-81
2024/03/05 17:48:15;;;;;;;7.75;4.43;;;;;;;;;;6239879;28;24463;-81
2024/03/05 17:51:18;;;;;;;6.90;4.40;;;;;;;;;;6243656;28;25183;-82
2024/03/05 17:54:21;;;;;;;5.60;3.80;;;;;;;;;;6240648;28;24427;-81
2024/03/05 17:57:23;;;;;;;6.35;3.78;;;;;;;;;;6238185;28;24444;-82
2024/03/05 18:00:27;;;;;;;6.30;4.43;;;;;;;;;;6243282;28;24486;-81
2024/03/05 18:03:34;;;;;;;8.10;4.25;;;;;;;;;;6239510;28;24804;-81
2024/03/05 18:06:36;;;;;;;5.75;3.60;;;;;;;;;;6240885;28;24416;-81
2024/03/05 18:09:41;;;;;;;5.63;3.92;;;;;;;;;;6241897;28;24428;-82
2024/03/05 18:12:43;;;;;;;6.28;3.72;;;;;;;;;;6238378;28;24450;-81
2024/03/05 18:15:45;;;;;;;9.38;4.45;;;;;;;;;;6240195;28;24439;-81
2024/03/05 18:18:47;;;;;;;6.60;4.22;;;;;;;;;;6238159;28;24869;-81
2024/03/05 18:21:49;;;;;;;8.27;4.15;;;;;;;;;;6240502;28;24428;-81
2024/03/05 18:24:54;;;;;;;6.78;3.78;;;;;;;;;;6240085;28;24436;-80
2024/03/05 18:27:56;;;;;;;6.97;3.50;;;;;;;;;;6240090;28;24500;-80
2024/03/05 18:30:58;;;;;;;5.90;2.85;;;;;;;;;;6238184;28;24408;-82
2024/03/05 18:34:04;;;;;;;5.05;2.90;;;;;;;;;;6238523;28;24448;-83
2024/03/05 18:37:06;;;;;;;6.05;3.03;;;;;;;;;;6238488;28;24475;-81
2024/03/05 18:40:13;;;;;;;6.25;3.70;;;;;;;;;;6264417;28;24466;-79
2024/03/05 18:43:16;;;;;;;6.05;4.18;;;;;;;;;;6265605;28;24419;-82
2024/03/05 18:46:18;;;;;;;6.43;5.10;;;;;;;;;;6262834;28;24438;-80
2024/03/05 18:49:21;;;;;;;9.90;6.35;;;;;;;;;;6260479;28;24686;-81
2024/03/05 18:52:23;;;;;;;7.43;4.70;;;;;;;;;;6260944;28;24451;-83
2024/03/05 18:55:27;;;;;;;6.93;4.00;;;;;;;;;;6260488;28;24424;-81
2024/03/05 18:58:29;;;;;;;5.07;3.33;;;;;;;;;;6263639;28;24414;-81
2024/03/05 19:01:31;;;;;;;6.10;3.30;;;;;;;;;;6265750;28;24795;-80
2024/03/05 19:04:33;;;;;;;11.57;4.72;;;;;;;;;;6264580;28;24506;-81
2024/03/05 19:07:35;;;;;;;49.08;20.35;;;;;;;;;;6266138;28;24478;-80
2024/03/05 19:10:39;;;;;;;13.90;5.65;;;;;;;;;;6263951;28;24424;-81
2024/03/05 19:13:41;;;;;;;6.32;3.28;;;;;;;;;;6262196;28;24433;-81
2024/03/05 19:16:43;;;;;;;7.25;3.88;;;;;;;;;;6262774;28;24495;-81
2024/03/05 19:19:47;;;;;;;5.13;3.20;;;;;;;;;;6262204;28;24430;-79
2024/03/05 19:22:48;;;;;;;5.50;2.40;;;;;;;;;;6261250;28;24430;-83
2024/03/05 19:25:52;;;;;;;5.05;2.78;;;;;;;;;;6264007;28;24423;-83
2024/03/05 19:28:54;;;;;;;5.13;2.75;;;;;;;;;;6263258;28;24420;-81
2024/03/05 19:31:56;;;;;;;5.43;2.83;;;;;;;;;;6260582;28;24416;-81
2024/03/05 19:34:58;;;;;;;4.40;2.45;;;;;;;;;;6262536;28;25178;-81
2024/03/05 19:37:59;;;;;;;5.18;2.97;;;;;;;;;;6262803;28;24427;-81
2024/03/05 19:41:03;;;;;;;4.57;2.90;;;;;;;;;;6263401;28;24869;-82
2024/03/05 19:44:05;;;;;;;4.40;2.78;;;;;;;;;;6264814;28;24423;-80